68A weather

Wrangell Seaplane Base
Wrangell, Alaska, United States

Public forecast

Using degrees Fahrenheit for public forecast. Weather courtesy of forecast.io.

METAR (pilot weather report)

Closest report is Wrangell Airport, 1.1 nm (2.1 km) NNE. Retrieved 2019/09/21 08:56 UTC (2 hours ago):

PAWG 210856Z AUTO 13009G15KT 6SM +RA BR FEW028 BKN036 OVC060 14/13 A2959

TAF (pilot weather forecast)

Closest forecast is Wrangell Airport, 1.1 nm (2.1 km) NNE. Retrieved 2019/09/21 06:36 UTC (4 hours ago):

TAF PAWG 210533Z 2106/2206 10015G25KT 6SM -RA BR SCT015 OVC035 WS020/17045KT TEMPO 2107/2111 3SM RA BR BKN015 FM211100 12011G18KT 5SM -RA BR SCT008 OVC015 FM211600 14008KT P6SM -SHRA SCT008 BKN025 OVC040 AMD LTD TO CLD VIS AND WIND 2106/2115